sensor_id;sensor_type;location;lat;lon;timestamp;pressure;altitude;pressure_sealevel;temperature;humidity
77587;BME280;66744;49.716;17.158;2024-01-16T00:00:04;97663.66;;;1.28;71.27
77587;BME280;66744;49.716;17.158;2024-01-16T00:03:06;97673.72;;;1.27;72.78
77587;BME280;66744;49.716;17.158;2024-01-16T00:06:11;97658.25;;;1.28;72.50
77587;BME280;66744;49.716;17.158;2024-01-16T00:09:12;97660.53;;;1.29;71.77
77587;BME280;66744;49.716;17.158;2024-01-16T00:12:16;97669.81;;;1.28;72.30
77587;BME280;66744;49.716;17.158;2024-01-16T00:15:17;97676.81;;;1.26;70.98
77587;BME280;66744;49.716;17.158;2024-01-16T00:18:19;97667.53;;;1.27;71.91
77587;BME280;66744;49.716;17.158;2024-01-16T00:21:21;97676.75;;;1.29;70.96
77587;BME280;66744;49.716;17.158;2024-01-16T00:24:23;97671.34;;;1.29;71.88
77587;BME280;66744;49.716;17.158;2024-01-16T00:27:25;97678.31;;;1.30;70.45
77587;BME280;66744;49.716;17.158;2024-01-16T00:30:30;97678.69;;;1.29;72.07
77587;BME280;66744;49.716;17.158;2024-01-16T00:33:31;97680.94;;;1.34;71.98
77587;BME280;66744;49.716;17.158;2024-01-16T00:36:33;97680.91;;;1.37;71.30
77587;BME280;66744;49.716;17.158;2024-01-16T00:39:36;97681.28;;;1.39;70.43
77587;BME280;66744;49.716;17.158;2024-01-16T00:42:37;97672.81;;;1.34;71.26
77587;BME280;66744;49.716;17.158;2024-01-16T00:45:41;97678.63;;;1.36;71.41
77587;BME280;66744;49.716;17.158;2024-01-16T00:48:45;97683.97;;;1.39;71.43
77587;BME280;66744;49.716;17.158;2024-01-16T00:51:49;97685.09;;;1.42;70.27
77587;BME280;66744;49.716;17.158;2024-01-16T00:54:56;97698.97;;;1.44;71.01
77587;BME280;66744;49.716;17.158;2024-01-16T00:57:58;97697.78;;;1.48;70.03
77587;BME280;66744;49.716;17.158;2024-01-16T01:01:05;97697.34;;;1.50;70.13
77587;BME280;66744;49.716;17.158;2024-01-16T01:04:07;97699.28;;;1.49;70.19
77587;BME280;66744;49.716;17.158;2024-01-16T01:07:08;97713.56;;;1.53;70.06
77587;BME280;66744;49.716;17.158;2024-01-16T01:10:14;97712.78;;;1.53;70.41
77587;BME280;66744;49.716;17.158;2024-01-16T01:13:17;97712.44;;;1.51;70.19
77587;BME280;66744;49.716;17.158;2024-01-16T01:16:20;97713.56;;;1.53;69.09
77587;BME280;66744;49.716;17.158;2024-01-16T01:19:24;97717.03;;;1.54;70.55
77587;BME280;66744;49.716;17.158;2024-01-16T01:22:25;97710.44;;;1.55;70.39
77587;BME280;66744;49.716;17.158;2024-01-16T01:25:32;97706.56;;;1.56;70.38
77587;BME280;66744;49.716;17.158;2024-01-16T01:28:34;97714.25;;;1.57;70.04
77587;BME280;66744;49.716;17.158;2024-01-16T01:31:35;97720.84;;;1.56;70.62
77587;BME280;66744;49.716;17.158;2024-01-16T01:34:37;97717.81;;;1.54;70.73
77587;BME280;66744;49.716;17.158;2024-01-16T01:37:41;97716.22;;;1.57;70.51
77587;BME280;66744;49.716;17.158;2024-01-16T01:40:44;97729.75;;;1.57;70.98
77587;BME280;66744;49.716;17.158;2024-01-16T01:43:50;97737.88;;;1.57;70.67
77587;BME280;66744;49.716;17.158;2024-01-16T01:46:54;97753.34;;;1.56;70.23
77587;BME280;66744;49.716;17.158;2024-01-16T01:49:57;97742.50;;;1.56;70.26
77587;BME280;66744;49.716;17.158;2024-01-16T01:53:01;97750.22;;;1.58;71.97
77587;BME280;66744;49.716;17.158;2024-01-16T01:56:06;97758.72;;;1.60;71.60
77587;BME280;66744;49.716;17.158;2024-01-16T01:59:09;97762.94;;;1.61;72.06
77587;BME280;66744;49.716;17.158;2024-01-16T02:02:12;97765.66;;;1.57;72.33
77587;BME280;66744;49.716;17.158;2024-01-16T02:05:14;97766.88;;;1.56;72.85
77587;BME280;66744;49.716;17.158;2024-01-16T02:08:17;97769.56;;;1.56;72.33
77587;BME280;66744;49.716;17.158;2024-01-16T02:11:22;97773.75;;;1.61;72.37
77587;BME280;66744;49.716;17.158;2024-01-16T02:14:25;97762.16;;;1.60;71.55
77587;BME280;66744;49.716;17.158;2024-01-16T02:17:27;97769.13;;;1.61;72.11
77587;BME280;66744;49.716;17.158;2024-01-16T02:20:28;97775.69;;;1.60;71.10
77587;BME280;66744;49.716;17.158;2024-01-16T02:23:29;97788.88;;;1.58;72.02
77587;BME280;66744;49.716;17.158;2024-01-16T02:26:33;97791.19;;;1.60;70.98
77587;BME280;66744;49.716;17.158;2024-01-16T02:29:41;97802.75;;;1.60;72.43
77587;BME280;66744;49.716;17.158;2024-01-16T02:32:47;97793.16;;;1.56;71.82
77587;BME280;66744;49.716;17.158;2024-01-16T02:35:53;97796.31;;;1.51;71.14
77587;BME280;66744;49.716;17.158;2024-01-16T02:38:55;97793.22;;;1.49;71.17
77587;BME280;66744;49.716;17.158;2024-01-16T02:41:56;97789.81;;;1.45;72.04
77587;BME280;66744;49.716;17.158;2024-01-16T02:45:01;97798.31;;;1.43;70.79
77587;BME280;66744;49.716;17.158;2024-01-16T02:48:06;97801.81;;;1.44;71.04
77587;BME280;66744;49.716;17.158;2024-01-16T02:51:08;97800.66;;;1.41;71.07
77587;BME280;66744;49.716;17.158;2024-01-16T02:54:12;97800.72;;;1.38;70.94
77587;BME280;66744;49.716;17.158;2024-01-16T02:57:13;97812.31;;;1.38;71.00
77587;BME280;66744;49.716;17.158;2024-01-16T03:00:17;97813.88;;;1.36;71.08
77587;BME280;66744;49.716;17.158;2024-01-16T03:03:19;97808.94;;;1.27;69.45
77587;BME280;66744;49.716;17.158;2024-01-16T03:06:27;97808.16;;;1.30;70.40
77587;BME280;66744;49.716;17.158;2024-01-16T03:09:33;97814.72;;;1.29;68.58
77587;BME280;66744;49.716;17.158;2024-01-16T03:12:36;97820.53;;;1.28;68.49
77587;BME280;66744;49.716;17.158;2024-01-16T03:15:42;97830.59;;;1.27;68.74
77587;BME280;66744;49.716;17.158;2024-01-16T03:18:44;97835.22;;;1.27;68.05
77587;BME280;66744;49.716;17.158;2024-01-16T03:21:45;97835.59;;;1.29;67.48
77587;BME280;66744;49.716;17.158;2024-01-16T03:24:48;97847.97;;;1.26;67.16
77587;BME280;66744;49.716;17.158;2024-01-16T03:27:50;97849.53;;;1.27;66.67
77587;BME280;66744;49.716;17.158;2024-01-16T03:30:54;97846.41;;;1.29;66.81
77587;BME280;66744;49.716;17.158;2024-01-16T03:33:55;97858.00;;;1.29;66.15
77587;BME280;66744;49.716;17.158;2024-01-16T03:36:56;97859.56;;;1.27;65.70
77587;BME280;66744;49.716;17.158;2024-01-16T03:40:01;97864.22;;;1.26;65.82
77587;BME280;66744;49.716;17.158;2024-01-16T03:43:04;97865.38;;;1.25;64.97
77587;BME280;66744;49.716;17.158;2024-01-16T03:46:12;97869.66;;;1.23;64.38
77587;BME280;66744;49.716;17.158;2024-01-16T03:49:14;97873.16;;;1.20;64.23
77587;BME280;66744;49.716;17.158;2024-01-16T03:52:15;97883.19;;;1.23;63.89
77587;BME280;66744;49.716;17.158;2024-01-16T03:55:16;97875.47;;;1.21;64.34
77587;BME280;66744;49.716;17.158;2024-01-16T03:58:19;97878.22;;;1.18;63.30
77587;BME280;66744;49.716;17.158;2024-01-16T04:01:31;97885.16;;;1.19;63.58
77587;BME280;66744;49.716;17.158;2024-01-16T04:04:35;97886.72;;;1.16;64.35
77587;BME280;66744;49.716;17.158;2024-01-16T04:07:36;97891.38;;;1.16;63.44
77587;BME280;66744;49.716;17.158;2024-01-16T04:10:37;97899.91;;;1.10;62.77
77587;BME280;66744;49.716;17.158;2024-01-16T04:13:39;97896.38;;;1.13;63.52
77587;BME280;66744;49.716;17.158;2024-01-16T04:16:42;97903.00;;;1.13;62.32
77587;BME280;66744;49.716;17.158;2024-01-16T04:19:46;97896.03;;;1.11;63.00
77587;BME280;66744;49.716;17.158;2024-01-16T04:22:49;97906.44;;;1.13;62.15
77587;BME280;66744;49.716;17.158;2024-01-16T04:25:51;97912.25;;;1.11;62.03
77587;BME280;66744;49.716;17.158;2024-01-16T04:28:54;97923.44;;;1.13;62.00
77587;BME280;66744;49.716;17.158;2024-01-16T04:31:56;97920.72;;;1.17;62.99
77587;BME280;66744;49.716;17.158;2024-01-16T04:34:59;97915.75;;;1.12;63.79
77587;BME280;66744;49.716;17.158;2024-01-16T04:38:03;97920.72;;;1.17;63.53
77587;BME280;66744;49.716;17.158;2024-01-16T04:41:06;97930.72;;;1.20;63.20
77587;BME280;66744;49.716;17.158;2024-01-16T04:44:07;97933.78;;;1.22;63.99
77587;BME280;66744;49.716;17.158;2024-01-16T04:47:08;97923.75;;;1.23;63.51
77587;BME280;66744;49.716;17.158;2024-01-16T04:50:10;97931.47;;;1.24;64.51
77587;BME280;66744;49.716;17.158;2024-01-16T04:53:11;97937.59;;;1.28;63.84
77587;BME280;66744;49.716;17.158;2024-01-16T04:56:13;97934.09;;;1.31;63.52
77587;BME280;66744;49.716;17.158;2024-01-16T04:59:14;97940.66;;;1.34;63.64
77587;BME280;66744;49.716;17.158;2024-01-16T05:02:16;97952.22;;;1.38;64.22
77587;BME280;66744;49.716;17.158;2024-01-16T05:05:19;97958.41;;;1.38;65.83
77587;BME280;66744;49.716;17.158;2024-01-16T05:08:20;97963.13;;;1.27;69.21
77587;BME280;66744;49.716;17.158;2024-01-16T05:11:22;97967.78;;;1.23;69.67
77587;BME280;66744;49.716;17.158;2024-01-16T05:14:29;97960.84;;;1.22;69.96
77587;BME280;66744;49.716;17.158;2024-01-16T05:17:31;97972.47;;;1.19;70.31
77587;BME280;66744;49.716;17.158;2024-01-16T05:20:35;97968.63;;;1.13;69.46
77587;BME280;66744;49.716;17.158;2024-01-16T05:23:38;97982.16;;;1.13;69.15
77587;BME280;66744;49.716;17.158;2024-01-16T05:26:40;97990.69;;;1.11;69.02
77587;BME280;66744;49.716;17.158;2024-01-16T05:29:43;97987.97;;;1.11;70.33
77587;BME280;66744;49.716;17.158;2024-01-16T05:32:46;97992.97;;;1.13;70.76
77587;BME280;66744;49.716;17.158;2024-01-16T05:35:47;97991.03;;;1.13;69.95
77587;BME280;66744;49.716;17.158;2024-01-16T05:38:48;97995.69;;;1.13;70.95
77587;BME280;66744;49.716;17.158;2024-01-16T05:41:51;98001.13;;;1.09;70.69
77587;BME280;66744;49.716;17.158;2024-01-16T05:44:53;98019.69;;;1.07;69.80
77587;BME280;66744;49.716;17.158;2024-01-16T05:47:55;98013.91;;;1.05;69.74
77587;BME280;66744;49.716;17.158;2024-01-16T05:50:58;98022.78;;;1.09;70.75
77587;BME280;66744;49.716;17.158;2024-01-16T05:53:59;98013.88;;;1.13;71.60
77587;BME280;66744;49.716;17.158;2024-01-16T05:57:02;98009.97;;;1.13;71.86
77587;BME280;66744;49.716;17.158;2024-01-16T06:00:06;98014.66;;;1.09;71.75
77587;BME280;66744;49.716;17.158;2024-01-16T06:03:08;98019.69;;;1.07;72.01
77587;BME280;66744;49.716;17.158;2024-01-16T06:06:09;98029.00;;;1.03;71.54
77587;BME280;66744;49.716;17.158;2024-01-16T06:09:11;98030.16;;;0.98;71.03
77587;BME280;66744;49.716;17.158;2024-01-16T06:12:15;98021.69;;;0.96;71.91
77587;BME280;66744;49.716;17.158;2024-01-16T06:15:16;98025.53;;;0.95;70.72
77587;BME280;66744;49.716;17.158;2024-01-16T06:18:18;98018.22;;;0.92;70.05
77587;BME280;66744;49.716;17.158;2024-01-16T06:21:19;98025.97;;;0.87;69.92
77587;BME280;66744;49.716;17.158;2024-01-16T06:24:20;98035.28;;;0.82;69.72
77587;BME280;66744;49.716;17.158;2024-01-16T06:27:21;98043.41;;;0.79;70.82
77587;BME280;66744;49.716;17.158;2024-01-16T06:30:23;98053.84;;;0.77;70.07
77587;BME280;66744;49.716;17.158;2024-01-16T06:33:24;98064.66;;;0.77;70.20
77587;BME280;66744;49.716;17.158;2024-01-16T06:36:26;98078.19;;;0.77;70.04
77587;BME280;66744;49.716;17.158;2024-01-16T06:39:27;98085.09;;;0.81;68.91
77587;BME280;66744;49.716;17.158;2024-01-16T06:42:28;98082.81;;;0.80;70.70
77587;BME280;66744;49.716;17.158;2024-01-16T06:45:30;98091.28;;;0.82;72.97
77587;BME280;66744;49.716;17.158;2024-01-16T06:48:31;98093.63;;;0.80;73.07
77587;BME280;66744;49.716;17.158;2024-01-16T06:51:32;98097.47;;;0.82;73.33
77587;BME280;66744;49.716;17.158;2024-01-16T06:54:33;98093.97;;;0.85;73.52
77587;BME280;66744;49.716;17.158;2024-01-16T06:57:34;98101.31;;;0.85;73.28
77587;BME280;66744;49.716;17.158;2024-01-16T07:00:36;98098.59;;;0.88;73.60
77587;BME280;66744;49.716;17.158;2024-01-16T07:03:37;98113.25;;;0.87;73.30
77587;BME280;66744;49.716;17.158;2024-01-16T07:06:38;98110.94;;;0.89;72.18
77587;BME280;66744;49.716;17.158;2024-01-16T07:09:40;98119.44;;;0.91;73.03
77587;BME280;66744;49.716;17.158;2024-01-16T07:12:41;98127.56;;;0.88;72.60
77587;BME280;66744;49.716;17.158;2024-01-16T07:15:42;98127.94;;;0.90;71.73
77587;BME280;66744;49.716;17.158;2024-01-16T07:18:43;98126.78;;;0.91;70.61
77587;BME280;66744;49.716;17.158;2024-01-16T07:21:44;98130.63;;;0.90;71.44
77587;BME280;66744;49.716;17.158;2024-01-16T07:24:46;98144.13;;;0.93;70.05
77587;BME280;66744;49.716;17.158;2024-01-16T07:27:47;98149.53;;;0.97;69.78
77587;BME280;66744;49.716;17.158;2024-01-16T07:30:53;98146.44;;;0.98;70.78
77587;BME280;66744;49.716;17.158;2024-01-16T07:33:54;98143.72;;;1.02;69.78
77587;BME280;66744;49.716;17.158;2024-01-16T07:36:56;98146.44;;;0.98;69.63
77587;BME280;66744;49.716;17.158;2024-01-16T07:39:57;98160.34;;;1.00;69.96
77587;BME280;66744;49.716;17.158;2024-01-16T07:42:58;98163.78;;;1.04;69.42
77587;BME280;66744;49.716;17.158;2024-01-16T07:45:59;98164.53;;;1.12;68.74
77587;BME280;66744;49.716;17.158;2024-01-16T07:49:01;98165.69;;;1.18;69.04
77587;BME280;66744;49.716;17.158;2024-01-16T07:52:03;98174.94;;;1.24;69.28
77587;BME280;66744;49.716;17.158;2024-01-16T07:55:06;98178.72;;;1.34;68.53
77587;BME280;66744;49.716;17.158;2024-01-16T07:58:11;98174.44;;;1.43;68.03
77587;BME280;66744;49.716;17.158;2024-01-16T08:01:12;98194.47;;;1.56;67.43
77587;BME280;66744;49.716;17.158;2024-01-16T08:04:13;98189.75;;;1.67;67.93
77587;BME280;66744;49.716;17.158;2024-01-16T08:07:14;98193.22;;;1.75;67.37
77587;BME280;66744;49.716;17.158;2024-01-16T08:10:16;98198.19;;;1.84;66.43
77587;BME280;66744;49.716;17.158;2024-01-16T08:13:17;98198.91;;;1.88;66.12
77587;BME280;66744;49.716;17.158;2024-01-16T08:16:18;98212.06;;;1.89;65.35
77587;BME280;66744;49.716;17.158;2024-01-16T08:19:19;98210.47;;;1.99;65.51
77587;BME280;66744;49.716;17.158;2024-01-16T08:22:21;98207.75;;;1.99;66.33
77587;BME280;66744;49.716;17.158;2024-01-16T08:25:22;98206.56;;;2.00;66.87
77587;BME280;66744;49.716;17.158;2024-01-16T08:28:23;98208.47;;;2.03;66.67
77587;BME280;66744;49.716;17.158;2024-01-16T08:31:25;98209.22;;;2.07;66.29
77587;BME280;66744;49.716;17.158;2024-01-16T08:34:27;98223.88;;;2.13;66.43
77587;BME280;66744;49.716;17.158;2024-01-16T08:37:28;98226.19;;;2.14;65.19
77587;BME280;66744;49.716;17.158;2024-01-16T08:40:29;98223.09;;;2.16;64.42
77587;BME280;66744;49.716;17.158;2024-01-16T08:43:30;98219.56;;;2.22;64.16
77587;BME280;66744;49.716;17.158;2024-01-16T08:46:31;98223.41;;;2.29;63.96
77587;BME280;66744;49.716;17.158;2024-01-16T08:49:33;98222.94;;;2.37;64.71
77587;BME280;66744;49.716;17.158;2024-01-16T08:52:35;98214.72;;;2.44;63.94
77587;BME280;66744;49.716;17.158;2024-01-16T08:55:36;98223.56;;;2.52;64.46
77587;BME280;66744;49.716;17.158;2024-01-16T08:58:38;98226.94;;;2.66;64.70
77587;BME280;66744;49.716;17.158;2024-01-16T09:01:39;98231.47;;;2.76;63.99
77587;BME280;66744;49.716;17.158;2024-01-16T09:04:44;98230.72;;;2.76;63.49
77587;BME280;66744;49.716;17.158;2024-01-16T09:07:46;98238.06;;;2.79;63.36
77587;BME280;66744;49.716;17.158;2024-01-16T09:10:47;98236.09;;;2.79;62.41
77587;BME280;66744;49.716;17.158;2024-01-16T09:13:49;98240.34;;;2.80;61.85
77587;BME280;66744;49.716;17.158;2024-01-16T09:16:50;98245.78;;;2.80;62.20
77587;BME280;66744;49.716;17.158;2024-01-16T09:19:51;98237.59;;;2.84;62.65
77587;BME280;66744;49.716;17.158;2024-01-16T09:22:53;98241.44;;;2.87;62.60
77587;BME280;66744;49.716;17.158;2024-01-16T09:25:54;98242.22;;;2.87;61.87
77587;BME280;66744;49.716;17.158;2024-01-16T09:28:55;98239.47;;;2.91;61.42
77587;BME280;66744;49.716;17.158;2024-01-16T09:31:56;98239.47;;;2.91;61.80
77587;BME280;66744;49.716;17.158;2024-01-16T09:34:57;98235.88;;;3.01;62.59
77587;BME280;66744;49.716;17.158;2024-01-16T09:37:59;98230.06;;;3.02;62.44
77587;BME280;66744;49.716;17.158;2024-01-16T09:41:00;98238.97;;;3.03;61.33
77587;BME280;66744;49.716;17.158;2024-01-16T09:44:04;98228.88;;;3.03;61.75
77587;BME280;66744;49.716;17.158;2024-01-16T09:47:06;98245.56;;;3.02;61.54
77587;BME280;66744;49.716;17.158;2024-01-16T09:50:09;98247.13;;;2.99;61.45
77587;BME280;66744;49.716;17.158;2024-01-16T09:53:12;98249.47;;;2.97;61.19
77587;BME280;66744;49.716;17.158;2024-01-16T09:56:16;98243.31;;;2.93;60.44
77587;BME280;66744;49.716;17.158;2024-01-16T09:59:18;98264.28;;;2.89;60.79
77587;BME280;66744;49.716;17.158;2024-01-16T10:02:22;98269.81;;;2.78;63.74
77587;BME280;66744;49.716;17.158;2024-01-16T10:05:24;98266.72;;;2.76;65.47
77587;BME280;66744;49.716;17.158;2024-01-16T10:08:27;98252.81;;;2.71;65.36
77587;BME280;66744;49.716;17.158;2024-01-16T10:11:30;98248.53;;;2.73;65.11
77587;BME280;66744;49.716;17.158;2024-01-16T10:14:33;98255.13;;;2.76;66.26
77587;BME280;66744;49.716;17.158;2024-01-16T10:17:41;98257.03;;;2.79;66.24
77587;BME280;66744;49.716;17.158;2024-01-16T10:20:43;98263.16;;;2.87;65.75
77587;BME280;66744;49.716;17.158;2024-01-16T10:23:44;98269.72;;;2.86;65.38
77587;BME280;66744;49.716;17.158;2024-01-16T10:26:45;98267.44;;;2.84;64.67
77587;BME280;66744;49.716;17.158;2024-01-16T10:29:58;98277.09;;;2.85;64.28
77587;BME280;66744;49.716;17.158;2024-01-16T10:33:13;98272.44;;;2.86;64.10
77587;BME280;66744;49.716;17.158;2024-01-16T10:36:18;98280.59;;;2.86;62.75
77587;BME280;66744;49.716;17.158;2024-01-16T10:39:21;98277.16;;;2.82;63.57
77587;BME280;66744;49.716;17.158;2024-01-16T10:42:23;98284.84;;;2.87;63.27
77587;BME280;66744;49.716;17.158;2024-01-16T10:45:24;98300.34;;;2.86;63.31
77587;BME280;66744;49.716;17.158;2024-01-16T10:48:25;98309.22;;;2.94;63.20
77587;BME280;66744;49.716;17.158;2024-01-16T10:51:28;98302.63;;;2.91;63.78
77587;BME280;66744;49.716;17.158;2024-01-16T10:54:30;98308.81;;;2.92;64.51
77587;BME280;66744;49.716;17.158;2024-01-16T10:57:32;98305.31;;;2.91;64.54
77587;BME280;66744;49.716;17.158;2024-01-16T11:00:34;98309.22;;;2.90;65.32
77587;BME280;66744;49.716;17.158;2024-01-16T11:03:47;98304.63;;;2.84;65.74
77587;BME280;66744;49.716;17.158;2024-01-16T11:06:54;98311.63;;;2.81;66.20
77587;BME280;66744;49.716;17.158;2024-01-16T11:09:56;98311.63;;;2.81;65.77
77587;BME280;66744;49.716;17.158;2024-01-16T11:13:00;98321.31;;;2.82;66.31
77587;BME280;66744;49.716;17.158;2024-01-16T11:16:02;98308.91;;;2.81;65.63
77587;BME280;66744;49.716;17.158;2024-01-16T11:19:10;98307.38;;;2.80;64.41
77587;BME280;66744;49.716;17.158;2024-01-16T11:22:12;98309.31;;;2.79;65.01
77587;BME280;66744;49.716;17.158;2024-01-16T11:25:16;98306.66;;;2.76;64.84
77587;BME280;66744;49.716;17.158;2024-01-16T11:28:18;98316.28;;;2.80;65.01
77587;BME280;66744;49.716;17.158;2024-01-16T11:37:42;98320.16;;;2.79;62.24
77587;BME280;66744;49.716;17.158;2024-01-16T11:40:44;98319.00;;;2.80;63.05
77587;BME280;66744;49.716;17.158;2024-01-16T11:43:45;98319.03;;;2.77;61.95
77587;BME280;66744;49.716;17.158;2024-01-16T11:47:03;98322.13;;;2.79;62.03
77587;BME280;66744;49.716;17.158;2024-01-16T11:50:12;98324.91;;;2.68;62.39
77587;BME280;66744;49.716;17.158;2024-01-16T11:53:32;98327.19;;;2.73;60.57
77587;BME280;66744;49.716;17.158;2024-01-16T12:00:05;98325.56;;;2.79;62.17
77587;BME280;66744;49.716;17.158;2024-01-16T12:03:15;98327.09;;;2.84;60.30
77587;BME280;66744;49.716;17.158;2024-01-16T12:06:19;98327.91;;;2.81;60.30
77587;BME280;66744;49.716;17.158;2024-01-16T12:09:21;98336.03;;;2.81;61.34
77587;BME280;66744;49.716;17.158;2024-01-16T12:12:22;98333.66;;;2.87;61.37
77587;BME280;66744;49.716;17.158;2024-01-16T12:15:24;98331.72;;;2.87;60.27
77587;BME280;66744;49.716;17.158;2024-01-16T12:18:25;98334.81;;;2.89;60.02
77587;BME280;66744;49.716;17.158;2024-01-16T12:21:26;98332.06;;;2.93;60.60
77587;BME280;66744;49.716;17.158;2024-01-16T12:24:27;98340.19;;;2.96;59.17
77587;BME280;66744;49.716;17.158;2024-01-16T12:27:29;98339.75;;;3.01;60.33
77587;BME280;66744;49.716;17.158;2024-01-16T12:30:34;98343.19;;;3.09;59.42
77587;BME280;66744;49.716;17.158;2024-01-16T12:33:36;98348.53;;;3.12;60.02
77587;BME280;66744;49.716;17.158;2024-01-16T12:36:37;98355.09;;;3.15;58.93
77587;BME280;66744;49.716;17.158;2024-01-16T12:39:40;98355.09;;;3.15;58.10
77587;BME280;66744;49.716;17.158;2024-01-16T12:42:43;98341.19;;;3.13;58.38
77587;BME280;66744;49.716;17.158;2024-01-16T12:45:45;98344.69;;;3.10;57.35
77587;BME280;66744;49.716;17.158;2024-01-16T12:48:46;98353.25;;;3.08;57.23
77587;BME280;66744;49.716;17.158;2024-01-16T12:51:50;98341.63;;;3.08;58.37
77587;BME280;66744;49.716;17.158;2024-01-16T12:55:01;98341.25;;;3.06;58.13
77587;BME280;66744;49.716;17.158;2024-01-16T12:58:19;98350.16;;;3.06;57.83
77587;BME280;66744;49.716;17.158;2024-01-16T13:04:24;98349.44;;;3.02;57.33
77587;BME280;66744;49.716;17.158;2024-01-16T13:07:26;98344.81;;;2.99;59.15
77587;BME280;66744;49.716;17.158;2024-01-16T13:10:30;98348.69;;;2.98;57.96
77587;BME280;66744;49.716;17.158;2024-01-16T13:13:33;98347.88;;;3.01;57.33
77587;BME280;66744;49.716;17.158;2024-01-16T13:16:34;98347.50;;;3.03;58.85
77587;BME280;66744;49.716;17.158;2024-01-16T13:19:36;98359.88;;;3.04;58.63
77587;BME280;66744;49.716;17.158;2024-01-16T13:22:40;98358.72;;;3.05;57.74
77587;BME280;66744;49.716;17.158;2024-01-16T13:25:45;98362.97;;;3.06;58.95
77587;BME280;66744;49.716;17.158;2024-01-16T13:28:46;98353.72;;;3.00;57.78
77587;BME280;66744;49.716;17.158;2024-01-16T13:31:48;98363.03;;;2.99;57.58
77587;BME280;66744;49.716;17.158;2024-01-16T13:34:55;98370.78;;;2.97;58.20
77587;BME280;66744;49.716;17.158;2024-01-16T13:37:58;98364.97;;;2.95;58.75
77587;BME280;66744;49.716;17.158;2024-01-16T13:41:00;98370.44;;;2.91;57.06
77587;BME280;66744;49.716;17.158;2024-01-16T13:44:03;98379.00;;;2.86;57.22
77587;BME280;66744;49.716;17.158;2024-01-16T13:47:06;98372.47;;;2.80;56.24
77587;BME280;66744;49.716;17.158;2024-01-16T13:50:07;98376.75;;;2.77;56.25
77587;BME280;66744;49.716;17.158;2024-01-16T13:53:09;98374.44;;;2.76;56.72
77587;BME280;66744;49.716;17.158;2024-01-16T13:56:10;98368.63;;;2.74;57.92
77587;BME280;66744;49.716;17.158;2024-01-16T13:59:12;98374.44;;;2.76;57.76
77587;BME280;66744;49.716;17.158;2024-01-16T14:02:13;98380.63;;;2.76;58.82
77587;BME280;66744;49.716;17.158;2024-01-16T14:05:16;98371.41;;;2.67;59.62
77587;BME280;66744;49.716;17.158;2024-01-16T14:08:20;98376.09;;;2.59;60.41
77587;BME280;66744;49.716;17.158;2024-01-16T14:11:22;98381.16;;;2.57;60.98
77587;BME280;66744;49.716;17.158;2024-01-16T14:14:23;98387.72;;;2.56;62.70
77587;BME280;66744;49.716;17.158;2024-01-16T14:17:26;98393.16;;;2.53;62.51
77587;BME280;66744;49.716;17.158;2024-01-16T14:20:29;98394.34;;;2.52;62.17
77587;BME280;66744;49.716;17.158;2024-01-16T14:23:31;98395.53;;;2.47;62.56
77587;BME280;66744;49.716;17.158;2024-01-16T14:26:33;98400.19;;;2.47;63.30
77587;BME280;66744;49.716;17.158;2024-01-16T14:29:37;98400.97;;;2.44;62.73
77587;BME280;66744;49.716;17.158;2024-01-16T14:32:39;98393.25;;;2.39;63.55
77587;BME280;66744;49.716;17.158;2024-01-16T14:35:41;98404.13;;;2.35;63.28
77587;BME280;66744;49.716;17.158;2024-01-16T14:38:42;98413.44;;;2.34;63.47
77587;BME280;66744;49.716;17.158;2024-01-16T14:41:44;98407.22;;;2.34;64.08
77587;BME280;66744;49.716;17.158;2024-01-16T14:44:45;98402.19;;;2.36;64.83
77587;BME280;66744;49.716;17.158;2024-01-16T14:47:47;98407.22;;;2.34;65.00
77587;BME280;66744;49.716;17.158;2024-01-16T14:50:48;98406.06;;;2.35;64.50
77587;BME280;66744;49.716;17.158;2024-01-16T14:53:50;98405.69;;;2.33;64.12
77587;BME280;66744;49.716;17.158;2024-01-16T14:56:51;98411.88;;;2.33;65.15
77587;BME280;66744;49.716;17.158;2024-01-16T14:59:53;98415.72;;;2.36;64.23
77587;BME280;66744;49.716;17.158;2024-01-16T15:02:55;98419.22;;;2.36;64.83
77587;BME280;66744;49.716;17.158;2024-01-16T15:05:56;98425.03;;;2.35;64.42
77587;BME280;66744;49.716;17.158;2024-01-16T15:08:58;98425.44;;;2.33;64.40
77587;BME280;66744;49.716;17.158;2024-01-16T15:12:01;98429.69;;;2.31;64.79
77587;BME280;66744;49.716;17.158;2024-01-16T15:15:04;98433.56;;;2.30;64.98
77587;BME280;66744;49.716;17.158;2024-01-16T15:18:06;98440.19;;;2.29;63.98
77587;BME280;66744;49.716;17.158;2024-01-16T15:21:08;98445.59;;;2.25;64.35
77587;BME280;66744;49.716;17.158;2024-01-16T15:24:10;98455.28;;;2.22;64.78
77587;BME280;66744;49.716;17.158;2024-01-16T15:27:17;98459.94;;;2.18;64.67
77587;BME280;66744;49.716;17.158;2024-01-16T15:30:19;98463.06;;;2.13;66.02
77587;BME280;66744;49.716;17.158;2024-01-16T15:33:20;98475.47;;;2.07;65.75
77587;BME280;66744;49.716;17.158;2024-01-16T15:36:21;98479.34;;;2.06;64.75
77587;BME280;66744;49.716;17.158;2024-01-16T15:39:23;98479.34;;;1.99;65.54
77587;BME280;66744;49.716;17.158;2024-01-16T15:42:24;98478.56;;;2.06;66.44
77587;BME280;66744;49.716;17.158;2024-01-16T15:45:27;98487.88;;;2.05;65.55
77587;BME280;66744;49.716;17.158;2024-01-16T15:48:29;98488.63;;;2.09;65.46
77587;BME280;66744;49.716;17.158;2024-01-16T15:51:34;98490.53;;;2.08;65.73
77587;BME280;66744;49.716;17.158;2024-01-16T15:54:35;98487.47;;;2.03;65.44
77587;BME280;66744;49.716;17.158;2024-01-16T15:57:37;98497.56;;;1.92;67.19
77587;BME280;66744;49.716;17.158;2024-01-16T16:00:39;98496.41;;;1.86;68.77
77587;BME280;66744;49.716;17.158;2024-01-16T16:03:40;98504.53;;;1.86;68.73
77587;BME280;66744;49.716;17.158;2024-01-16T16:06:42;98493.28;;;1.87;68.80
77587;BME280;66744;49.716;17.158;2024-01-16T16:09:43;98493.28;;;1.87;68.10
77587;BME280;66744;49.716;17.158;2024-01-16T16:12:45;98482.88;;;1.89;68.20
77587;BME280;66744;49.716;17.158;2024-01-16T16:15:48;98475.91;;;1.85;67.34
77587;BME280;66744;49.716;17.158;2024-01-16T16:18:50;98480.53;;;1.84;68.85